createdAt,value
2023-04-09T00:02:15.750Z,95678.88
2023-04-09T00:05:02.276Z,95677.28
2023-04-09T00:07:48.036Z,95676.19
2023-04-09T00:10:33.635Z,95679.94
2023-04-09T00:13:25.442Z,95672.97
2023-04-09T00:16:22.170Z,95679.94
2023-04-09T00:19:08.113Z,95686.34
2023-04-09T00:21:53.861Z,95674.59
2023-04-09T00:24:39.533Z,95688.50
2023-04-09T00:27:25.903Z,95672.41
2023-04-09T00:30:11.953Z,95684.19
2023-04-09T00:32:58.192Z,95677.75
2023-04-09T00:35:43.995Z,95683.66
2023-04-09T00:38:29.764Z,95682.06
2023-04-09T00:41:15.386Z,95687.91
2023-04-09T00:44:01.216Z,95688.44
2023-04-09T00:46:46.966Z,95689.78
2023-04-09T00:49:32.705Z,95690.59
2023-04-09T00:52:18.324Z,95679.59
2023-04-09T00:55:06.560Z,95686.03
2023-04-09T00:57:52.153Z,95691.66
2023-04-09T01:00:40.683Z,95688.50
2023-04-09T01:03:27.264Z,95693.06
2023-04-09T01:06:20.115Z,95700.81
2023-04-09T01:09:21.189Z,95702.97
2023-04-09T01:12:30.406Z,95699.75
2023-04-09T01:15:22.791Z,95697.09
2023-04-09T01:18:23.717Z,95701.38
2023-04-09T01:21:11.977Z,95701.59
2023-04-09T01:24:11.210Z,95702.41
2023-04-09T01:27:06.802Z,95689.53
2023-04-09T01:30:09.211Z,95687.91
2023-04-09T01:32:56.111Z,95688.19
2023-04-09T01:35:47.385Z,95693.28
2023-04-09T01:38:35.254Z,95684.19
2023-04-09T01:41:22.739Z,95693.84
2023-04-09T01:44:09.747Z,95690.63
2023-04-09T01:46:56.664Z,95695.44
2023-04-09T01:49:43.876Z,95690.06
2023-04-09T01:52:30.421Z,95690.88
2023-04-09T01:55:16.490Z,95690.88
2023-04-09T01:58:03.606Z,95689.84
2023-04-09T02:00:50.053Z,95680.47
2023-04-09T02:03:47.900Z,95676.72
2023-04-09T02:07:01.451Z,95678.63
2023-04-09T02:09:49.189Z,95676.72
2023-04-09T02:12:37.176Z,95673.50
2023-04-09T02:15:23.705Z,95675.09
2023-04-09T02:18:27.428Z,95673.50
2023-04-09T02:21:13.949Z,95660.63
2023-04-09T02:24:00.393Z,95664.88
2023-04-09T02:26:46.421Z,95671.84
2023-04-09T02:29:32.508Z,95664.88
2023-04-09T02:32:18.327Z,95662.19
2023-04-09T02:35:04.351Z,95670.25
2023-04-09T02:37:50.328Z,95672.94
2023-04-09T02:40:35.894Z,95672.13
2023-04-09T02:43:21.594Z,95675.34
2023-04-09T02:46:07.905Z,95674.00
2023-04-09T02:48:54.762Z,95666.00
2023-04-09T02:51:40.695Z,95671.91
2023-04-09T02:54:26.635Z,95674.06
2023-04-09T02:57:12.308Z,95678.88
2023-04-09T02:59:58.148Z,95680.00
2023-04-09T03:02:44.016Z,95681.06
2023-04-09T03:05:30.672Z,95682.69
2023-04-09T03:08:16.393Z,95680.53
2023-04-09T03:11:01.926Z,95680.53
2023-04-09T03:47:55.684Z,95691.81
2023-04-09T03:52:25.322Z,95698.25
2023-04-09T03:57:06.950Z,95697.41
2023-04-09T04:01:38.381Z,95704.91
2023-04-09T04:06:08.210Z,95705.19
2023-04-09T04:10:49.991Z,95709.22
2023-04-09T04:15:19.296Z,95716.44
2023-04-09T04:19:49.281Z,95713.19
2023-04-09T04:24:19.248Z,95718.28
2023-04-09T04:28:50.370Z,95729.28
2023-04-09T04:33:25.369Z,95721.81
2023-04-09T04:37:55.256Z,95723.44
2023-04-09T04:42:25.326Z,95722.94
2023-04-09T04:46:55.332Z,95728.84
2023-04-09T04:51:25.311Z,95720.81
2023-04-09T04:56:06.152Z,95712.03
2023-04-09T05:00:35.364Z,95721.41
2023-04-09T05:05:07.633Z,95729.19
2023-04-09T05:09:38.334Z,95728.41
2023-04-09T05:14:09.344Z,95734.84
2023-04-09T05:18:39.344Z,95734.03
2023-04-09T05:23:09.303Z,95731.91
2023-04-09T05:27:40.439Z,95732.16
2023-04-09T05:32:09.303Z,95741.00
2023-04-09T05:36:40.355Z,95736.97
2023-04-09T05:41:10.349Z,95742.84
2023-04-09T05:45:40.390Z,95739.63
2023-04-09T05:50:12.626Z,95743.09
2023-04-09T05:54:42.440Z,95750.88
2023-04-09T05:59:14.381Z,95769.09
2023-04-09T06:03:44.449Z,95756.72
2023-04-09T06:08:14.344Z,95762.91
2023-04-09T06:12:44.627Z,95763.72
2023-04-09T06:17:14.443Z,95773.94
2023-04-09T06:21:45.665Z,95762.69
2023-04-09T06:26:16.371Z,95764.84
2023-04-09T06:30:46.362Z,95773.94
2023-04-09T06:35:16.411Z,95771.81
2023-04-09T06:38:38.064Z,95778.22
2023-04-09T06:41:24.262Z,95775.53
2023-04-09T06:44:10.173Z,95779.81
2023-04-09T06:46:55.926Z,95781.97
2023-04-09T06:49:41.788Z,95774.94
2023-04-09T06:52:27.644Z,95781.94
2023-04-09T06:55:14.054Z,95779.22
2023-04-09T06:57:59.933Z,95783.50
2023-04-09T07:00:45.782Z,95785.09
2023-04-09T07:03:32.165Z,95790.44
2023-04-09T07:06:18.325Z,95789.66
2023-04-09T07:09:04.440Z,95787.22
2023-04-09T07:11:50.588Z,95777.03
2023-04-09T07:14:36.776Z,95777.03
2023-04-09T07:17:22.451Z,95788.00
2023-04-09T07:20:08.545Z,95781.81
2023-04-09T07:22:54.628Z,95780.72
2023-04-09T07:25:40.734Z,95783.06
2023-04-09T07:28:27.203Z,95780.66
2023-04-09T07:31:13.320Z,95780.06
2023-04-09T07:33:59.235Z,95767.97
2023-04-09T07:36:45.143Z,95769.25
2023-04-09T07:39:30.863Z,95772.97
2023-04-09T07:42:17.206Z,95776.72
2023-04-09T07:45:04.012Z,95765.44
2023-04-09T07:47:50.002Z,95781.56
2023-04-09T07:50:36.473Z,95781.00
2023-04-09T07:53:22.338Z,95784.47
2023-04-09T07:56:09.190Z,95782.06
2023-04-09T07:58:55.223Z,95784.44
2023-04-09T08:01:41.535Z,95786.81
2023-04-09T08:04:27.446Z,95785.97
2023-04-09T08:07:13.473Z,95774.41
2023-04-09T08:09:59.166Z,95787.25
2023-04-09T08:12:45.049Z,95785.09
2023-04-09T08:15:30.967Z,95793.69
2023-04-09T08:18:16.632Z,95786.72
2023-04-09T08:21:05.217Z,95794.72
2023-04-09T08:23:51.516Z,95794.16
2023-04-09T08:26:41.524Z,95801.16
2023-04-09T08:29:27.467Z,95796.31
2023-04-09T08:32:13.711Z,95803.78
2023-04-09T08:34:59.560Z,95783.88
2023-04-09T08:37:46.879Z,95791.13
2023-04-09T08:40:36.270Z,95799.94
2023-04-09T08:43:25.083Z,95790.22
2023-04-09T08:46:19.075Z,95791.50
2023-04-09T08:49:05.101Z,95791.47
2023-04-09T08:51:50.836Z,95795.97
2023-04-09T08:54:37.214Z,95798.97
2023-04-09T08:57:23.012Z,95798.97
2023-04-09T09:00:09.425Z,95796.56
2023-04-09T09:03:10.256Z,95804.91
2023-04-09T09:05:56.253Z,95804.41
2023-04-09T09:08:41.992Z,95796.06
2023-04-09T09:11:28.246Z,95801.44
2023-04-09T09:14:19.361Z,95797.94
2023-04-09T09:17:06.942Z,95802.97
2023-04-09T09:19:53.277Z,95804.03
2023-04-09T09:22:55.168Z,95806.19
2023-04-09T09:25:41.996Z,95812.38
2023-04-09T09:28:35.512Z,95812.72
2023-04-09T09:31:22.791Z,95809.50
2023-04-09T09:34:09.110Z,95801.47
2023-04-09T09:36:55.038Z,95794.56
2023-04-09T09:39:46.668Z,95812.84
2023-04-09T09:42:33.089Z,95815.00
2023-04-09T09:45:22.011Z,95809.09
2023-04-09T09:48:10.355Z,95818.25
2023-04-09T09:50:56.215Z,95810.69
2023-04-09T09:53:45.862Z,95804.75
2023-04-09T09:56:36.354Z,95805.81
2023-04-09T09:59:23.895Z,95796.06
2023-04-09T10:02:19.959Z,95799.28
2023-04-09T10:05:06.591Z,95798.19
2023-04-09T10:07:57.820Z,95793.59
2023-04-09T10:10:43.896Z,95793.28
2023-04-09T10:13:40.550Z,95796.78
2023-04-09T10:16:27.350Z,95794.91
2023-04-09T10:19:15.304Z,95791.13
2023-04-09T10:22:16.997Z,95782.53
2023-04-09T10:25:04.676Z,95788.44
2023-04-09T10:28:03.733Z,95795.97
2023-04-09T10:30:49.529Z,95784.09
2023-04-09T10:33:37.446Z,95784.09
2023-04-09T10:36:27.923Z,95789.94
2023-04-09T10:39:13.991Z,95782.41
2023-04-09T10:42:08.986Z,95782.13
2023-04-09T10:45:08.603Z,95778.63
2023-04-09T10:47:54.299Z,95775.41
2023-04-09T10:50:42.751Z,95773.78
2023-04-09T10:53:28.610Z,95775.41
2023-04-09T10:56:17.755Z,95769.97
2023-04-09T10:59:03.916Z,95768.38
2023-04-09T11:01:54.783Z,95768.66
2023-04-09T11:04:51.478Z,95764.59
2023-04-09T11:07:41.530Z,95766.22
2023-04-09T11:10:28.549Z,95765.34
2023-04-09T11:13:15.863Z,95759.16
2023-04-09T11:16:06.762Z,95758.59
2023-04-09T11:18:54.114Z,95744.59
2023-04-09T11:21:46.414Z,95756.06
2023-04-09T11:24:42.012Z,95755.72
2023-04-09T11:27:27.869Z,95758.34
2023-04-09T11:30:14.049Z,95761.00
2023-04-09T11:33:00.113Z,95756.41
2023-04-09T11:35:46.268Z,95758.81
2023-04-09T11:38:32.506Z,95761.28
2023-04-09T11:41:18.373Z,95758.13
2023-04-09T11:44:05.305Z,95751.47
2023-04-09T11:46:51.336Z,95752.56
2023-04-09T11:49:37.827Z,95758.03
2023-04-09T11:52:23.731Z,95748.38
2023-04-09T11:55:11.000Z,95749.53
2023-04-09T11:58:00.735Z,95753.88
2023-04-09T12:00:46.869Z,95743.22
2023-04-09T12:03:33.744Z,95743.22
2023-04-09T12:06:21.747Z,95741.03
2023-04-09T12:09:08.949Z,95740.47
2023-04-09T12:11:55.082Z,95745.56
2023-04-09T12:14:47.051Z,95743.09
2023-04-09T12:17:34.363Z,95739.88
2023-04-09T12:20:39.565Z,95730.00
2023-04-09T12:23:25.480Z,95737.16
2023-04-09T12:26:11.296Z,95737.16
2023-04-09T12:28:57.376Z,95726.91
2023-04-09T12:31:43.663Z,95727.66
2023-04-09T12:34:29.507Z,95731.09
2023-04-09T12:37:15.760Z,95733.19
2023-04-09T12:40:01.388Z,95722.38
2023-04-09T12:42:47.572Z,95730.38
2023-04-09T12:45:33.390Z,95730.34
2023-04-09T12:48:19.398Z,95724.91
2023-04-09T12:51:06.422Z,95716.81
2023-04-09T12:53:52.729Z,95715.13
2023-04-09T12:56:39.992Z,95722.06
2023-04-09T12:59:26.188Z,95712.91
2023-04-09T13:02:12.189Z,95713.41
2023-04-09T13:04:58.133Z,95709.63
2023-04-09T13:07:43.977Z,95715.47
2023-04-09T13:10:31.121Z,95721.28
2023-04-09T13:13:17.191Z,95712.53
2023-04-09T13:16:03.126Z,95701.63
2023-04-09T13:18:48.858Z,95695.09
2023-04-09T13:21:34.654Z,95699.88
2023-04-09T13:24:20.738Z,95689.63
2023-04-09T13:27:09.538Z,95694.97
2023-04-09T13:29:55.520Z,95687.38
2023-04-09T13:32:42.298Z,95684.06
2023-04-09T13:35:28.034Z,95677.59
2023-04-09T13:38:14.257Z,95678.19
2023-04-09T13:41:00.471Z,95666.97
2023-04-09T13:43:46.365Z,95680.75
2023-04-09T13:46:32.222Z,95669.72
2023-04-09T13:49:17.962Z,95664.41
2023-04-09T13:52:04.634Z,95662.78
2023-04-09T13:54:50.453Z,95674.66
2023-04-09T13:57:36.765Z,95671.25
2023-04-09T14:00:23.026Z,95672.34
2023-04-09T14:03:09.227Z,95669.44
2023-04-09T14:05:55.100Z,95668.91
2023-04-09T14:08:41.151Z,95664.41
2023-04-09T14:11:27.107Z,95666.59
2023-04-09T14:14:12.802Z,95656.19
2023-04-09T14:16:58.717Z,95665.13
2023-04-09T14:19:44.490Z,95660.94
2023-04-09T14:22:30.486Z,95664.25
2023-04-09T14:25:16.867Z,95659.22
2023-04-09T14:28:03.293Z,95656.03
2023-04-09T14:30:49.252Z,95660.38
2023-04-09T14:33:35.655Z,95655.59
2023-04-09T14:36:21.884Z,95655.63
2023-04-09T14:39:07.840Z,95650.81
2023-04-09T14:41:55.101Z,95657.31
2023-04-09T14:44:41.061Z,95656.81
2023-04-09T14:47:27.231Z,95652.50
2023-04-09T14:50:13.204Z,95652.50
2023-04-09T14:52:59.595Z,95646.31
2023-04-09T14:55:45.524Z,95643.38
2023-04-09T14:58:31.643Z,95649.88
2023-04-09T15:01:17.549Z,95650.66
2023-04-09T15:04:03.685Z,95644.47
2023-04-09T15:06:49.665Z,95643.47
2023-04-09T15:09:35.353Z,95648.84
2023-04-09T15:12:21.117Z,95639.19
2023-04-09T15:15:08.786Z,95647.25
2023-04-09T15:17:54.611Z,95642.94
2023-04-09T15:20:40.594Z,95632.22
2023-04-09T15:23:26.641Z,95636.25
2023-04-09T15:26:12.230Z,95645.06
2023-04-09T15:29:04.179Z,95644.47
2023-04-09T15:31:53.037Z,95644.47
2023-04-09T15:34:39.196Z,95642.81
2023-04-09T15:37:24.978Z,95640.38
2023-04-09T15:40:11.132Z,95642.19
2023-04-09T15:42:56.817Z,95642.19
2023-04-09T15:45:42.552Z,95644.81
2023-04-09T15:48:28.752Z,95639.94
2023-04-09T15:51:14.692Z,95632.97
2023-04-09T15:54:00.326Z,95631.88
2023-04-09T15:56:46.312Z,95633.44
2023-04-09T15:59:32.148Z,95624.06
2023-04-09T16:02:18.931Z,95638.25
2023-04-09T16:05:06.172Z,95634.47
2023-04-09T16:07:51.972Z,95629.66
2023-04-09T16:10:38.022Z,95631.28
2023-04-09T16:13:24.141Z,95633.97
2023-04-09T16:16:10.007Z,95620.28
2023-04-09T16:18:56.241Z,95628.06
2023-04-09T16:21:44.788Z,95628.66
2023-04-09T16:24:31.687Z,95630.31
2023-04-09T16:27:17.717Z,95631.97
2023-04-09T16:30:03.795Z,95635.78
2023-04-09T16:32:49.544Z,95628.28
2023-04-09T16:35:39.632Z,95629.38
2023-04-09T16:38:27.589Z,95633.38
2023-04-09T16:41:13.558Z,95623.97
2023-04-09T16:43:59.113Z,95632.84
2023-04-09T16:46:45.197Z,95634.75
2023-04-09T16:49:31.613Z,95638.28
2023-04-09T16:52:17.734Z,95632.69
2023-04-09T16:55:03.982Z,95625.25
2023-04-09T16:57:50.051Z,95640.38
2023-04-09T17:00:36.118Z,95633.97
2023-04-09T17:03:22.692Z,95643.69
2023-04-09T17:06:08.399Z,95633.00
2023-04-09T17:08:54.418Z,95643.81
2023-04-09T17:11:40.065Z,95645.19
2023-04-09T17:14:25.649Z,95644.97
2023-04-09T17:17:11.820Z,95639.63
2023-04-09T17:20:00.032Z,95644.19
2023-04-09T17:22:45.732Z,95646.69
2023-04-09T17:25:31.511Z,95646.44
2023-04-09T17:28:18.906Z,95638.19
2023-04-09T17:31:13.292Z,95650.56
2023-04-09T17:33:59.558Z,95648.94
2023-04-09T17:36:49.742Z,95648.94
2023-04-09T17:39:35.885Z,95640.91
2023-04-09T17:42:23.416Z,95648.72
2023-04-09T17:45:10.152Z,95658.66
2023-04-09T17:47:57.290Z,95652.81
2023-04-09T17:50:43.167Z,95663.03
2023-04-09T17:53:28.962Z,95663.81
2023-04-09T17:56:18.159Z,95665.19
2023-04-09T17:59:06.204Z,95665.75
2023-04-09T18:01:52.898Z,95672.72
2023-04-09T18:04:39.530Z,95673.28
2023-04-09T18:07:30.289Z,95673.06
2023-04-09T18:10:16.493Z,95680.31
2023-04-09T18:13:02.519Z,95687.06
2023-04-09T18:15:48.494Z,95679.84
2023-04-09T18:18:34.545Z,95681.97
2023-04-09T18:21:20.426Z,95678.75
2023-04-09T18:24:06.556Z,95679.84
2023-04-09T18:26:52.346Z,95668.88
2023-04-09T18:29:38.192Z,95680.91
2023-04-09T18:32:25.283Z,95685.22
2023-04-09T18:35:11.227Z,95691.91
2023-04-09T18:37:57.280Z,95688.16
2023-04-09T18:40:46.738Z,95688.41
2023-04-09T18:43:32.459Z,95692.16
2023-04-09T18:46:18.738Z,95702.34
2023-04-09T18:49:04.497Z,95690.00
2023-04-09T18:51:50.407Z,95700.16
2023-04-09T18:54:37.390Z,95700.16
2023-04-09T18:57:23.072Z,95696.94
2023-04-09T19:00:09.336Z,95686.19
2023-04-09T19:02:55.353Z,95704.75
2023-04-09T19:05:41.443Z,95697.53
2023-04-09T19:08:30.417Z,95703.13
2023-04-09T19:11:16.617Z,95694.56
2023-04-09T19:14:03.122Z,95702.34
2023-04-09T19:16:48.954Z,95702.34
2023-04-09T19:19:34.948Z,95694.56
2023-04-09T19:22:21.027Z,95695.94
2023-04-09T19:25:08.595Z,95692.44
2023-04-09T19:27:54.767Z,95702.38
2023-04-09T19:30:40.768Z,95697.03
2023-04-09T19:33:27.620Z,95692.25
2023-04-09T19:36:14.076Z,95698.19
2023-04-09T19:38:59.711Z,95694.16
2023-04-09T19:41:45.518Z,95682.91
2023-04-09T19:44:31.365Z,95690.66
2023-04-09T19:47:17.370Z,95689.03
2023-04-09T19:50:04.186Z,95689.03
2023-04-09T19:52:50.380Z,95684.47
2023-04-09T19:55:36.743Z,95690.06
2023-04-09T19:58:23.245Z,95686.00
2023-04-09T20:01:10.015Z,95684.13
2023-04-09T20:03:56.206Z,95690.03
2023-04-09T20:06:43.365Z,95696.72
2023-04-09T20:09:29.274Z,95679.28
2023-04-09T20:12:15.026Z,95689.75
2023-04-09T20:15:02.223Z,95679.25
2023-04-09T20:17:49.009Z,95681.94
2023-04-09T20:20:34.863Z,95671.22
2023-04-09T20:23:21.126Z,95683.81
2023-04-09T20:26:09.784Z,95673.09
2023-04-09T20:28:56.254Z,95682.22
2023-04-09T20:31:43.714Z,95679.25
2023-04-09T20:34:29.729Z,95675.44
2023-04-09T20:37:15.676Z,95672.19
2023-04-09T20:40:01.820Z,95666.03
2023-04-09T20:42:47.588Z,95671.69
2023-04-09T20:45:33.370Z,95665.28
2023-04-09T20:48:19.874Z,95658.28
2023-04-09T20:51:11.014Z,95667.44
2023-04-09T20:53:59.025Z,95659.41
2023-04-09T20:56:47.027Z,95661.88
2023-04-09T20:59:32.949Z,95663.75
2023-04-09T21:02:19.105Z,95667.81
2023-04-09T21:05:19.599Z,95656.25
2023-04-09T21:08:08.681Z,95664.63
2023-04-09T21:10:54.842Z,95659.00
2023-04-09T21:13:53.657Z,95657.94
2023-04-09T21:16:41.606Z,95653.97
2023-04-09T21:19:27.586Z,95663.38
2023-04-09T21:22:13.522Z,95654.25
2023-04-09T21:24:59.163Z,95655.06
2023-04-09T21:27:45.005Z,95661.25
2023-04-09T21:30:32.367Z,95657.56
2023-04-09T21:33:18.067Z,95664.00
2023-04-09T21:36:04.701Z,95672.63
2023-04-09T21:38:50.640Z,95664.34
2023-04-09T21:41:36.701Z,95675.81
2023-04-09T21:44:22.917Z,95676.34
2023-04-09T21:47:09.440Z,95674.69
2023-04-09T21:49:55.721Z,95664.53
2023-04-09T21:52:42.031Z,95668.78
2023-04-09T21:55:27.848Z,95665.00
2023-04-09T21:58:13.877Z,95661.50
2023-04-09T22:00:59.999Z,95661.72
2023-04-09T22:03:46.828Z,95662.78
2023-04-09T22:06:32.976Z,95659.53
2023-04-09T22:09:19.068Z,95654.69
2023-04-09T22:12:05.284Z,95654.94
2023-04-09T22:14:52.378Z,95650.59
2023-04-09T22:17:38.871Z,95665.41
2023-04-09T22:20:26.343Z,95660.03
2023-04-09T22:23:12.410Z,95660.03
2023-04-09T22:26:02.306Z,95660.31
2023-04-09T22:28:47.976Z,95659.47
2023-04-09T22:31:33.884Z,95661.63
2023-04-09T22:34:21.850Z,95657.91
2023-04-09T22:37:08.171Z,95658.44
2023-04-09T22:39:53.968Z,95652.03
2023-04-09T22:42:43.068Z,95658.19
2023-04-09T22:45:30.594Z,95656.13
2023-04-09T22:48:16.369Z,95651.53
2023-04-09T22:51:02.140Z,95653.44
2023-04-09T22:53:47.782Z,95653.47
2023-04-09T22:56:34.526Z,95654.50
2023-04-09T22:59:23.051Z,95644.03
2023-04-09T23:02:11.102Z,95640.81
2023-04-09T23:04:57.516Z,95643.22
2023-04-09T23:07:45.130Z,95635.91
2023-04-09T23:10:32.096Z,95632.47
2023-04-09T23:13:18.259Z,95632.16
2023-04-09T23:16:06.417Z,95634.28
2023-04-09T23:18:52.629Z,95631.06
2023-04-09T23:21:39.568Z,95618.72
2023-04-09T23:24:25.418Z,95630.53
2023-04-09T23:27:11.317Z,95625.69
2023-04-09T23:29:57.444Z,95628.44
2023-04-09T23:32:46.732Z,95626.84
2023-04-09T23:35:32.751Z,95626.84
2023-04-09T23:38:18.378Z,95625.22
2023-04-09T23:41:04.230Z,95623.63
2023-04-09T23:43:50.959Z,95618.53
2023-04-09T23:46:37.284Z,95611.34
2023-04-09T23:49:23.089Z,95617.19
2023-04-09T23:52:08.717Z,95614.56
2023-04-09T23:54:54.671Z,95608.41
2023-04-09T23:57:40.586Z,95603.31
